Terminal Aerodrome Forecast
Issued by NWS

Home | Current Version | Previous Version | Graphics & Text | Print | Product List | Glossary On
Versions: 1 2 3 4 5 6 7 8 9 10 11 12
000
FTUS42 KMHX 301121
TAFOAJ
TAF
KOAJ 301121Z 3012/3112 VRB03KT P6SM SCT110
     FM301600 22006KT P6SM VCTS BKN040CB
     FM310200 18005KT P6SM SCT060
     FM310900 20004KT 5SM BR BKN050
      AMD LTD TO CLD VIS AND WIND=

USA.gov is the U.S. government's official web portal to all federal, state and local government web resources and services.